sensor_id;sensor_type;location;lat;lon;timestamp;pressure;altitude;pressure_sealevel;temperature;humidity
4528;BME280;62320;51.520;6.818;2023-07-28T00:04:35;100074.16;;;18.28;100.00
4528;BME280;62320;51.520;6.818;2023-07-28T00:14:37;100081.16;;;18.27;100.00
4528;BME280;62320;51.520;6.818;2023-07-28T00:24:38;100063.94;;;18.22;100.00
4528;BME280;62320;51.520;6.818;2023-07-28T00:34:40;100060.53;;;18.20;100.00
4528;BME280;62320;51.520;6.818;2023-07-28T00:44:42;100053.41;;;18.23;100.00
4528;BME280;62320;51.520;6.818;2023-07-28T00:54:43;100051.69;;;18.22;100.00
4528;BME280;62320;51.520;6.818;2023-07-28T01:04:45;100062.63;;;18.12;100.00
4528;BME280;62320;51.520;6.818;2023-07-28T01:14:47;100071.00;;;18.20;100.00
4528;BME280;62320;51.520;6.818;2023-07-28T01:24:54;100077.09;;;18.20;100.00
4528;BME280;62320;51.520;6.818;2023-07-28T01:34:57;100066.81;;;18.16;100.00
4528;BME280;62320;51.520;6.818;2023-07-28T01:44:58;100057.19;;;18.16;100.00
4528;BME280;62320;51.520;6.818;2023-07-28T01:55:00;100065.97;;;18.15;100.00
4528;BME280;62320;51.520;6.818;2023-07-28T02:05:01;100062.50;;;18.15;100.00
4528;BME280;62320;51.520;6.818;2023-07-28T02:15:04;100057.31;;;18.13;100.00
4528;BME280;62320;51.520;6.818;2023-07-28T02:25:07;100064.19;;;18.16;100.00
4528;BME280;62320;51.520;6.818;2023-07-28T02:35:08;100077.28;;;18.16;100.00
4528;BME280;62320;51.520;6.818;2023-07-28T02:45:11;100081.53;;;18.18;100.00
4528;BME280;62320;51.520;6.818;2023-07-28T02:55:13;100100.63;;;18.20;100.00
4528;BME280;62320;51.520;6.818;2023-07-28T03:05:14;100102.41;;;18.20;100.00
4528;BME280;62320;51.520;6.818;2023-07-28T03:15:16;100104.19;;;18.19;100.00
4528;BME280;62320;51.520;6.818;2023-07-28T03:25:18;100102.41;;;18.20;100.00
4528;BME280;62320;51.520;6.818;2023-07-28T03:35:19;100104.91;;;18.23;100.00
4528;BME280;62320;51.520;6.818;2023-07-28T03:45:21;100107.31;;;18.27;100.00
4528;BME280;62320;51.520;6.818;2023-07-28T03:55:22;100117.88;;;18.26;100.00
4528;BME280;62320;51.520;6.818;2023-07-28T04:05:24;100114.38;;;18.25;100.00
4528;BME280;62320;51.520;6.818;2023-07-28T04:15:25;100124.13;;;18.22;100.00
4528;BME280;62320;51.520;6.818;2023-07-28T04:25:27;100107.41;;;18.26;100.00
4528;BME280;62320;51.520;6.818;2023-07-28T04:35:30;100118.19;;;18.18;100.00
4528;BME280;62320;51.520;6.818;2023-07-28T04:45:31;100124.00;;;18.25;100.00
4528;BME280;62320;51.520;6.818;2023-07-28T04:55:33;100136.97;;;18.28;100.00
4528;BME280;62320;51.520;6.818;2023-07-28T05:05:34;100134.94;;;18.34;100.00
4528;BME280;62320;51.520;6.818;2023-07-28T05:15:36;100141.69;;;18.40;100.00
4528;BME280;62320;51.520;6.818;2023-07-28T05:25:37;100148.19;;;18.51;100.00
4528;BME280;62320;51.520;6.818;2023-07-28T05:35:39;100157.03;;;18.49;100.00
4528;BME280;62320;51.520;6.818;2023-07-28T05:45:46;100159.44;;;18.53;100.00
4528;BME280;62320;51.520;6.818;2023-07-28T05:55:47;100178.63;;;18.54;100.00
4528;BME280;62320;51.520;6.818;2023-07-28T06:05:50;100193.34;;;18.58;100.00
4528;BME280;62320;51.520;6.818;2023-07-28T06:15:53;100199.16;;;18.65;100.00
4528;BME280;62320;51.520;6.818;2023-07-28T06:25:55;100206.88;;;18.68;100.00
4528;BME280;62320;51.520;6.818;2023-07-28T06:35:57;100207.59;;;18.71;100.00
4528;BME280;62320;51.520;6.818;2023-07-28T06:45:59;100219.06;;;18.69;100.00
4528;BME280;62320;51.520;6.818;2023-07-28T06:56:01;100217.94;;;18.74;100.00
4528;BME280;62320;51.520;6.818;2023-07-28T07:06:02;100233.53;;;18.77;100.00
4528;BME280;62320;51.520;6.818;2023-07-28T07:16:05;100229.88;;;18.81;100.00
4528;BME280;62320;51.520;6.818;2023-07-28T07:26:08;100239.72;;;18.96;100.00
4528;BME280;62320;51.520;6.818;2023-07-28T07:36:16;100253.19;;;19.07;100.00
4528;BME280;62320;51.520;6.818;2023-07-28T07:46:19;100262.34;;;19.17;100.00
4528;BME280;62320;51.520;6.818;2023-07-28T07:56:20;100259.28;;;19.28;100.00
4528;BME280;62320;51.520;6.818;2023-07-28T08:06:22;100259.50;;;19.44;100.00
4528;BME280;62320;51.520;6.818;2023-07-28T08:16:24;100271.13;;;19.57;100.00
4528;BME280;62320;51.520;6.818;2023-07-28T08:26:25;100272.84;;;19.76;100.00
4528;BME280;62320;51.520;6.818;2023-07-28T08:36:27;100280.19;;;19.88;100.00
4528;BME280;62320;51.520;6.818;2023-07-28T08:46:29;100299.75;;;20.00;100.00
4528;BME280;62320;51.520;6.818;2023-07-28T08:56:31;100308.00;;;20.11;100.00
4528;BME280;62320;51.520;6.818;2023-07-28T09:06:33;100308.97;;;20.09;100.00
4528;BME280;62320;51.520;6.818;2023-07-28T09:16:35;100306.19;;;20.32;100.00
4528;BME280;62320;51.520;6.818;2023-07-28T09:36:40;100309.88;;;20.63;100.00
4528;BME280;62320;51.520;6.818;2023-07-28T09:46:55;100311.38;;;20.69;100.00
4528;BME280;62320;51.520;6.818;2023-07-28T09:56:58;100316.09;;;20.97;100.00
4528;BME280;62320;51.520;6.818;2023-07-28T10:07:01;100323.75;;;21.01;100.00
4528;BME280;62320;51.520;6.818;2023-07-28T10:17:04;100327.34;;;21.00;100.00
4528;BME280;62320;51.520;6.818;2023-07-28T10:27:07;100332.72;;;21.16;100.00
4528;BME280;62320;51.520;6.818;2023-07-28T10:37:08;100331.38;;;21.24;100.00
4528;BME280;62320;51.520;6.818;2023-07-28T10:47:10;100337.03;;;21.34;100.00
4528;BME280;62320;51.520;6.818;2023-07-28T10:57:12;100344.38;;;21.45;100.00
4528;BME280;62320;51.520;6.818;2023-07-28T11:07:15;100335.00;;;21.56;100.00
4528;BME280;62320;51.520;6.818;2023-07-28T11:17:17;100341.22;;;21.55;100.00
4528;BME280;62320;51.520;6.818;2023-07-28T11:27:18;100341.34;;;21.69;100.00
4528;BME280;62320;51.520;6.818;2023-07-28T11:37:20;100336.38;;;21.80;100.00
4528;BME280;62320;51.520;6.818;2023-07-28T11:47:22;100346.41;;;22.38;100.00
4528;BME280;62320;51.520;6.818;2023-07-28T11:57:25;100324.56;;;22.36;100.00
4528;BME280;62320;51.520;6.818;2023-07-28T12:07:31;100316.66;;;22.67;98.27
4528;BME280;62320;51.520;6.818;2023-07-28T12:17:33;100322.75;;;22.83;95.89
4528;BME280;62320;51.520;6.818;2023-07-28T12:27:38;100321.94;;;22.83;94.89
4528;BME280;62320;51.520;6.818;2023-07-28T12:37:39;100303.38;;;22.84;95.67
4528;BME280;62320;51.520;6.818;2023-07-28T12:47:44;100313.94;;;22.84;95.41
4528;BME280;62320;51.520;6.818;2023-07-28T12:57:46;100315.94;;;22.95;95.47
4528;BME280;62320;51.520;6.818;2023-07-28T13:07:49;100316.16;;;23.06;94.59
4528;BME280;62320;51.520;6.818;2023-07-28T13:17:54;100328.63;;;23.18;94.14
4528;BME280;62320;51.520;6.818;2023-07-28T13:27:55;100325.91;;;23.35;94.38
4528;BME280;62320;51.520;6.818;2023-07-28T13:37:57;100318.25;;;23.45;93.94
4528;BME280;62320;51.520;6.818;2023-07-28T13:47:58;100319.25;;;23.58;92.35
4528;BME280;62320;51.520;6.818;2023-07-28T13:58:00;100314.13;;;23.55;91.07
4528;BME280;62320;51.520;6.818;2023-07-28T14:08:02;100307.06;;;23.55;91.18
4528;BME280;62320;51.520;6.818;2023-07-28T14:18:03;100308.94;;;23.67;90.95
4528;BME280;62320;51.520;6.818;2023-07-28T14:28:05;100309.06;;;23.66;90.49
4528;BME280;62320;51.520;6.818;2023-07-28T14:38:07;100312.09;;;23.74;89.64
4528;BME280;62320;51.520;6.818;2023-07-28T14:48:08;100303.03;;;23.92;89.67
4528;BME280;62320;51.520;6.818;2023-07-28T14:58:10;100302.53;;;23.85;90.08
4528;BME280;62320;51.520;6.818;2023-07-28T15:08:13;100297.34;;;23.98;89.12
4528;BME280;62320;51.520;6.818;2023-07-28T15:18:15;100308.09;;;23.95;90.06
4528;BME280;62320;51.520;6.818;2023-07-28T15:28:17;100307.06;;;23.97;89.75
4528;BME280;62320;51.520;6.818;2023-07-28T15:38:18;100323.94;;;23.81;90.03
4528;BME280;62320;51.520;6.818;2023-07-28T15:48:21;100333.28;;;23.72;89.40
4528;BME280;62320;51.520;6.818;2023-07-28T15:58:22;100335.44;;;23.66;90.19
4528;BME280;62320;51.520;6.818;2023-07-28T16:08:24;100340.44;;;23.56;90.67
4528;BME280;62320;51.520;6.818;2023-07-28T16:18:25;100331.75;;;23.54;90.65
4528;BME280;62320;51.520;6.818;2023-07-28T16:28:28;100331.28;;;23.48;90.98
4528;BME280;62320;51.520;6.818;2023-07-28T16:38:30;100332.31;;;23.45;90.86
4528;BME280;62320;51.520;6.818;2023-07-28T16:48:31;100321.28;;;23.38;91.28
4528;BME280;62320;51.520;6.818;2023-07-28T16:58:33;100309.13;;;23.50;91.71
4528;BME280;62320;51.520;6.818;2023-07-28T17:08:35;100299.81;;;23.59;91.53
4528;BME280;62320;51.520;6.818;2023-07-28T17:18:36;100302.81;;;23.53;91.31
4528;BME280;62320;51.520;6.818;2023-07-28T17:28:38;100315.44;;;23.48;91.20
4528;BME280;62320;51.520;6.818;2023-07-28T17:38:40;100308.66;;;23.44;91.85
4528;BME280;62320;51.520;6.818;2023-07-28T17:48:41;100321.09;;;23.42;91.01
4528;BME280;62320;51.520;6.818;2023-07-28T17:58:43;100326.72;;;23.35;91.09
4528;BME280;62320;51.520;6.818;2023-07-28T18:08:45;100318.50;;;23.26;91.71
4528;BME280;62320;51.520;6.818;2023-07-28T18:18:47;100325.91;;;23.19;92.88
4528;BME280;62320;51.520;6.818;2023-07-28T18:28:49;100328.53;;;23.19;93.40
4528;BME280;62320;51.520;6.818;2023-07-28T18:38:50;100337.84;;;23.11;93.55
4528;BME280;62320;51.520;6.818;2023-07-28T18:48:52;100334.72;;;23.04;93.14
4528;BME280;62320;51.520;6.818;2023-07-28T18:58:54;100334.59;;;22.92;93.13
4528;BME280;62320;51.520;6.818;2023-07-28T19:08:56;100336.13;;;22.80;93.41
4528;BME280;62320;51.520;6.818;2023-07-28T19:18:57;100342.00;;;22.69;93.42
4528;BME280;62320;51.520;6.818;2023-07-28T19:28:59;100353.38;;;22.54;95.07
4528;BME280;62320;51.520;6.818;2023-07-28T19:39:01;100353.22;;;22.42;95.85
4528;BME280;62320;51.520;6.818;2023-07-28T19:49:03;100344.28;;;22.29;95.10
4528;BME280;62320;51.520;6.818;2023-07-28T19:59:04;100353.78;;;22.16;97.16
4528;BME280;62320;51.520;6.818;2023-07-28T20:09:06;100346.22;;;22.10;96.81
4528;BME280;62320;51.520;6.818;2023-07-28T20:19:07;100361.56;;;22.01;96.90
4528;BME280;62320;51.520;6.818;2023-07-28T20:29:09;100359.34;;;21.94;99.01
4528;BME280;62320;51.520;6.818;2023-07-28T20:39:11;100364.09;;;21.87;98.67
4528;BME280;62320;51.520;6.818;2023-07-28T20:49:12;100351.00;;;21.86;100.00
4528;BME280;62320;51.520;6.818;2023-07-28T20:59:14;100360.13;;;21.79;98.32
4528;BME280;62320;51.520;6.818;2023-07-28T21:09:15;100358.59;;;21.75;99.33
4528;BME280;62320;51.520;6.818;2023-07-28T21:19:17;100361.34;;;21.72;100.00
4528;BME280;62320;51.520;6.818;2023-07-28T21:29:19;100362.56;;;21.66;100.00
4528;BME280;62320;51.520;6.818;2023-07-28T21:39:20;100362.16;;;21.57;100.00
4528;BME280;62320;51.520;6.818;2023-07-28T21:49:23;100372.16;;;21.50;100.00
4528;BME280;62320;51.520;6.818;2023-07-28T21:59:25;100361.97;;;21.44;100.00
4528;BME280;62320;51.520;6.818;2023-07-28T22:09:26;100353.22;;;21.44;100.00
4528;BME280;62320;51.520;6.818;2023-07-28T22:19:28;100359.31;;;21.27;100.00
4528;BME280;62320;51.520;6.818;2023-07-28T22:29:29;100368.53;;;21.18;100.00
4528;BME280;62320;51.520;6.818;2023-07-28T22:39:31;100358.38;;;21.11;100.00
4528;BME280;62320;51.520;6.818;2023-07-28T22:49:33;100351.09;;;20.99;100.00
4528;BME280;62320;51.520;6.818;2023-07-28T22:59:35;100350.25;;;20.80;100.00
4528;BME280;62320;51.520;6.818;2023-07-28T23:09:41;100345.75;;;20.65;100.00
4528;BME280;62320;51.520;6.818;2023-07-28T23:19:42;100332.47;;;20.49;100.00
4528;BME280;62320;51.520;6.818;2023-07-28T23:29:44;100319.00;;;20.38;100.00
4528;BME280;62320;51.520;6.818;2023-07-28T23:39:45;100312.03;;;20.18;100.00
4528;BME280;62320;51.520;6.818;2023-07-28T23:49:47;100298.66;;;20.06;100.00
4528;BME280;62320;51.520;6.818;2023-07-28T23:59:48;100304.31;;;19.97;100.00
